Pinon, Colorado
Current Conditions -  °F | °C
As of 6:53 AM on Saturday 22 Nov 2014 (Local Time) from KPUB Reporting Station
Clear Clear  
Wind Chill: 24°   Ceiling: Unl
Heat Index: 24°   Visibility: 10mi
Dew Point: 21°   Wind: 3mph
Humidity: 88%   Direction: 90°E
Pressure: 29.88"   Gusts: NA
Location:  38.4101°N, 104.583°W
Report Text: KPUB 221353Z 09003KT 10SM CLR M04/M06 A2988 RMK AO2 SLP131 T10441061
Loading
Personal Weather Stations






























Interactive Weather Map New forecast layout! Learn more

10-Day Weather Forecast

Advertisements
Track Severe Weather on mobile